sensor_id;sensor_type;location;lat;lon;timestamp;P1;durP1;ratioP1;P2;durP2;ratioP2
10403;SDS011;5248;47.374;8.486;2024-03-29T00:00:09;1.87;;;0.60;;
10403;SDS011;5248;47.374;8.486;2024-03-29T00:02:35;0.50;;;0.50;;
10403;SDS011;5248;47.374;8.486;2024-03-29T00:05:01;0.97;;;0.60;;
10403;SDS011;5248;47.374;8.486;2024-03-29T00:07:26;0.50;;;0.40;;
10403;SDS011;5248;47.374;8.486;2024-03-29T00:09:52;0.43;;;0.43;;
10403;SDS011;5248;47.374;8.486;2024-03-29T00:12:17;0.30;;;0.30;;
10403;SDS011;5248;47.374;8.486;2024-03-29T00:14:43;1.50;;;0.50;;
10403;SDS011;5248;47.374;8.486;2024-03-29T00:17:10;0.50;;;0.50;;
10403;SDS011;5248;47.374;8.486;2024-03-29T00:19:36;0.53;;;0.53;;
10403;SDS011;5248;47.374;8.486;2024-03-29T00:22:01;0.50;;;0.50;;
10403;SDS011;5248;47.374;8.486;2024-03-29T00:24:27;0.50;;;0.47;;
10403;SDS011;5248;47.374;8.486;2024-03-29T00:26:52;1.23;;;0.40;;
10403;SDS011;5248;47.374;8.486;2024-03-29T00:29:18;0.50;;;0.50;;
10403;SDS011;5248;47.374;8.486;2024-03-29T00:31:44;1.30;;;0.50;;
10403;SDS011;5248;47.374;8.486;2024-03-29T00:34:11;0.77;;;0.77;;
10403;SDS011;5248;47.374;8.486;2024-03-29T00:36:36;0.60;;;0.60;;
10403;SDS011;5248;47.374;8.486;2024-03-29T00:39:02;0.80;;;0.80;;
10403;SDS011;5248;47.374;8.486;2024-03-29T00:41:28;1.73;;;0.70;;
10403;SDS011;5248;47.374;8.486;2024-03-29T00:43:53;1.07;;;0.80;;
10403;SDS011;5248;47.374;8.486;2024-03-29T00:46:19;0.40;;;0.40;;
10403;SDS011;5248;47.374;8.486;2024-03-29T00:48:44;0.70;;;0.50;;
10403;SDS011;5248;47.374;8.486;2024-03-29T00:51:11;1.37;;;0.90;;
10403;SDS011;5248;47.374;8.486;2024-03-29T00:53:37;0.90;;;0.70;;
10403;SDS011;5248;47.374;8.486;2024-03-29T00:56:03;0.50;;;0.50;;
10403;SDS011;5248;47.374;8.486;2024-03-29T00:58:29;0.50;;;0.50;;
10403;SDS011;5248;47.374;8.486;2024-03-29T01:00:55;2.53;;;0.87;;
10403;SDS011;5248;47.374;8.486;2024-03-29T01:03:21;0.50;;;0.50;;
10403;SDS011;5248;47.374;8.486;2024-03-29T01:05:46;0.30;;;0.30;;
10403;SDS011;5248;47.374;8.486;2024-03-29T01:08:13;0.60;;;0.60;;
10403;SDS011;5248;47.374;8.486;2024-03-29T01:10:39;0.30;;;0.30;;
10403;SDS011;5248;47.374;8.486;2024-03-29T01:13:05;0.70;;;0.70;;
10403;SDS011;5248;47.374;8.486;2024-03-29T01:15:30;0.70;;;0.60;;
10403;SDS011;5248;47.374;8.486;2024-03-29T01:17:56;0.53;;;0.53;;
10403;SDS011;5248;47.374;8.486;2024-03-29T01:20:21;0.53;;;0.53;;
10403;SDS011;5248;47.374;8.486;2024-03-29T01:22:47;0.53;;;0.53;;
10403;SDS011;5248;47.374;8.486;2024-03-29T01:25:14;0.40;;;0.40;;
10403;SDS011;5248;47.374;8.486;2024-03-29T01:27:40;0.57;;;0.57;;
10403;SDS011;5248;47.374;8.486;2024-03-29T01:30:06;1.23;;;0.70;;
10403;SDS011;5248;47.374;8.486;2024-03-29T01:32:32;1.97;;;0.67;;
10403;SDS011;5248;47.374;8.486;2024-03-29T01:34:58;1.07;;;0.60;;
10403;SDS011;5248;47.374;8.486;2024-03-29T01:37:24;0.97;;;0.80;;
10403;SDS011;5248;47.374;8.486;2024-03-29T01:39:50;2.27;;;0.77;;
10403;SDS011;5248;47.374;8.486;2024-03-29T01:42:18;1.70;;;0.50;;
10403;SDS011;5248;47.374;8.486;2024-03-29T01:44:43;0.50;;;0.50;;
10403;SDS011;5248;47.374;8.486;2024-03-29T01:47:10;0.73;;;0.60;;
10403;SDS011;5248;47.374;8.486;2024-03-29T01:49:36;0.87;;;0.83;;
10403;SDS011;5248;47.374;8.486;2024-03-29T01:52:03;1.53;;;0.90;;
10403;SDS011;5248;47.374;8.486;2024-03-29T01:54:30;1.03;;;0.50;;
10403;SDS011;5248;47.374;8.486;2024-03-29T01:56:57;0.80;;;0.80;;
10403;SDS011;5248;47.374;8.486;2024-03-29T01:59:25;1.10;;;1.00;;
10403;SDS011;5248;47.374;8.486;2024-03-29T02:01:52;3.03;;;1.67;;
10403;SDS011;5248;47.374;8.486;2024-03-29T02:04:18;1.43;;;1.30;;
10403;SDS011;5248;47.374;8.486;2024-03-29T02:06:45;1.23;;;1.13;;
10403;SDS011;5248;47.374;8.486;2024-03-29T02:09:12;1.23;;;1.13;;
10403;SDS011;5248;47.374;8.486;2024-03-29T02:11:39;1.20;;;0.80;;
10403;SDS011;5248;47.374;8.486;2024-03-29T02:14:06;0.80;;;0.67;;
10403;SDS011;5248;47.374;8.486;2024-03-29T02:16:34;0.40;;;0.40;;
10403;SDS011;5248;47.374;8.486;2024-03-29T02:19:03;0.27;;;0.27;;
10403;SDS011;5248;47.374;8.486;2024-03-29T02:21:29;0.50;;;0.50;;
10403;SDS011;5248;47.374;8.486;2024-03-29T02:23:59;0.63;;;0.63;;
10403;SDS011;5248;47.374;8.486;2024-03-29T02:26:27;1.07;;;0.80;;
10403;SDS011;5248;47.374;8.486;2024-03-29T02:28:57;0.93;;;0.60;;
10403;SDS011;5248;47.374;8.486;2024-03-29T02:31:24;1.93;;;1.73;;
10403;SDS011;5248;47.374;8.486;2024-03-29T02:33:51;2.20;;;1.40;;
10403;SDS011;5248;47.374;8.486;2024-03-29T02:36:17;2.07;;;1.77;;
10403;SDS011;5248;47.374;8.486;2024-03-29T02:38:44;2.40;;;2.20;;
10403;SDS011;5248;47.374;8.486;2024-03-29T02:41:12;3.80;;;2.50;;
10403;SDS011;5248;47.374;8.486;2024-03-29T02:43:38;2.37;;;2.27;;
10403;SDS011;5248;47.374;8.486;2024-03-29T02:46:05;1.10;;;1.00;;
10403;SDS011;5248;47.374;8.486;2024-03-29T02:48:32;0.37;;;0.30;;
10403;SDS011;5248;47.374;8.486;2024-03-29T02:50:57;0.40;;;0.40;;
10403;SDS011;5248;47.374;8.486;2024-03-29T02:53:24;1.60;;;0.50;;
10403;SDS011;5248;47.374;8.486;2024-03-29T02:55:49;0.50;;;0.50;;
10403;SDS011;5248;47.374;8.486;2024-03-29T02:58:17;0.40;;;0.40;;
10403;SDS011;5248;47.374;8.486;2024-03-29T03:00:43;0.50;;;0.50;;
10403;SDS011;5248;47.374;8.486;2024-03-29T03:03:09;0.50;;;0.50;;
10403;SDS011;5248;47.374;8.486;2024-03-29T03:05:35;0.40;;;0.40;;
10403;SDS011;5248;47.374;8.486;2024-03-29T03:08:01;1.07;;;0.33;;
10403;SDS011;5248;47.374;8.486;2024-03-29T03:10:46;0.83;;;0.40;;
10403;SDS011;5248;47.374;8.486;2024-03-29T03:13:25;1.47;;;0.30;;
10403;SDS011;5248;47.374;8.486;2024-03-29T03:15:52;0.40;;;0.40;;
10403;SDS011;5248;47.374;8.486;2024-03-29T03:18:19;0.87;;;0.30;;
10403;SDS011;5248;47.374;8.486;2024-03-29T03:20:49;0.37;;;0.37;;
10403;SDS011;5248;47.374;8.486;2024-03-29T03:23:16;1.23;;;0.40;;
10403;SDS011;5248;47.374;8.486;2024-03-29T03:25:43;0.90;;;0.87;;
10403;SDS011;5248;47.374;8.486;2024-03-29T03:28:08;0.70;;;0.70;;
10403;SDS011;5248;47.374;8.486;2024-03-29T03:30:38;0.83;;;0.40;;
10403;SDS011;5248;47.374;8.486;2024-03-29T03:33:04;0.70;;;0.70;;
10403;SDS011;5248;47.374;8.486;2024-03-29T03:35:31;1.27;;;0.50;;
10403;SDS011;5248;47.374;8.486;2024-03-29T03:37:56;1.10;;;0.57;;
10403;SDS011;5248;47.374;8.486;2024-03-29T03:40:23;0.80;;;0.37;;
10403;SDS011;5248;47.374;8.486;2024-03-29T03:42:49;0.80;;;0.50;;
10403;SDS011;5248;47.374;8.486;2024-03-29T03:45:15;0.60;;;0.50;;
10403;SDS011;5248;47.374;8.486;2024-03-29T03:47:42;0.90;;;0.87;;
10403;SDS011;5248;47.374;8.486;2024-03-29T03:50:09;1.20;;;0.83;;
10403;SDS011;5248;47.374;8.486;2024-03-29T03:52:34;1.17;;;1.07;;
10403;SDS011;5248;47.374;8.486;2024-03-29T03:55:01;1.70;;;0.97;;
10403;SDS011;5248;47.374;8.486;2024-03-29T03:57:27;0.90;;;0.90;;
10403;SDS011;5248;47.374;8.486;2024-03-29T03:59:53;1.13;;;1.03;;
10403;SDS011;5248;47.374;8.486;2024-03-29T04:02:19;0.87;;;0.87;;
10403;SDS011;5248;47.374;8.486;2024-03-29T04:04:48;1.27;;;0.97;;
10403;SDS011;5248;47.374;8.486;2024-03-29T04:07:13;1.03;;;1.03;;
10403;SDS011;5248;47.374;8.486;2024-03-29T04:09:40;1.63;;;1.53;;
10403;SDS011;5248;47.374;8.486;2024-03-29T04:12:05;2.53;;;2.33;;
10403;SDS011;5248;47.374;8.486;2024-03-29T04:14:32;2.40;;;2.20;;
10403;SDS011;5248;47.374;8.486;2024-03-29T04:16:59;1.87;;;1.57;;
10403;SDS011;5248;47.374;8.486;2024-03-29T04:19:24;1.97;;;1.53;;
10403;SDS011;5248;47.374;8.486;2024-03-29T04:21:53;1.33;;;1.23;;
10403;SDS011;5248;47.374;8.486;2024-03-29T04:24:19;1.73;;;1.63;;
10403;SDS011;5248;47.374;8.486;2024-03-29T04:26:46;1.90;;;1.30;;
10403;SDS011;5248;47.374;8.486;2024-03-29T04:29:12;2.73;;;1.40;;
10403;SDS011;5248;47.374;8.486;2024-03-29T04:31:39;1.73;;;1.63;;
10403;SDS011;5248;47.374;8.486;2024-03-29T04:34:05;1.80;;;1.70;;
10403;SDS011;5248;47.374;8.486;2024-03-29T04:36:31;1.40;;;1.40;;
10403;SDS011;5248;47.374;8.486;2024-03-29T04:38:58;1.20;;;1.10;;
10403;SDS011;5248;47.374;8.486;2024-03-29T04:41:25;2.40;;;1.30;;
10403;SDS011;5248;47.374;8.486;2024-03-29T04:43:51;1.67;;;1.20;;
10403;SDS011;5248;47.374;8.486;2024-03-29T04:46:18;1.10;;;1.10;;
10403;SDS011;5248;47.374;8.486;2024-03-29T04:48:44;1.00;;;0.90;;
10403;SDS011;5248;47.374;8.486;2024-03-29T04:51:11;1.10;;;1.00;;
10403;SDS011;5248;47.374;8.486;2024-03-29T04:53:38;1.60;;;0.70;;
10403;SDS011;5248;47.374;8.486;2024-03-29T04:56:06;1.30;;;1.20;;
10403;SDS011;5248;47.374;8.486;2024-03-29T04:58:33;1.10;;;1.10;;
10403;SDS011;5248;47.374;8.486;2024-03-29T05:01:00;1.50;;;1.40;;
10403;SDS011;5248;47.374;8.486;2024-03-29T05:03:26;1.37;;;0.97;;
10403;SDS011;5248;47.374;8.486;2024-03-29T05:05:53;0.80;;;0.80;;
10403;SDS011;5248;47.374;8.486;2024-03-29T05:08:20;0.60;;;0.60;;
10403;SDS011;5248;47.374;8.486;2024-03-29T05:10:47;2.03;;;1.40;;
10403;SDS011;5248;47.374;8.486;2024-03-29T05:13:16;1.27;;;1.00;;
10403;SDS011;5248;47.374;8.486;2024-03-29T05:15:43;1.13;;;1.03;;
10403;SDS011;5248;47.374;8.486;2024-03-29T05:18:10;1.40;;;1.30;;
10403;SDS011;5248;47.374;8.486;2024-03-29T05:20:37;1.30;;;1.20;;
10403;SDS011;5248;47.374;8.486;2024-03-29T05:23:04;1.50;;;1.40;;
10403;SDS011;5248;47.374;8.486;2024-03-29T05:25:31;1.90;;;1.27;;
10403;SDS011;5248;47.374;8.486;2024-03-29T05:27:58;1.50;;;1.10;;
10403;SDS011;5248;47.374;8.486;2024-03-29T05:30:26;1.00;;;1.00;;
10403;SDS011;5248;47.374;8.486;2024-03-29T05:32:53;1.90;;;1.40;;
10403;SDS011;5248;47.374;8.486;2024-03-29T05:35:20;1.30;;;1.20;;
10403;SDS011;5248;47.374;8.486;2024-03-29T05:37:47;1.43;;;1.13;;
10403;SDS011;5248;47.374;8.486;2024-03-29T05:40:16;0.93;;;0.83;;
10403;SDS011;5248;47.374;8.486;2024-03-29T05:42:43;1.07;;;1.00;;
10403;SDS011;5248;47.374;8.486;2024-03-29T05:45:22;1.27;;;1.10;;
10403;SDS011;5248;47.374;8.486;2024-03-29T05:47:50;1.50;;;1.30;;
10403;SDS011;5248;47.374;8.486;2024-03-29T05:50:17;0.87;;;0.87;;
10403;SDS011;5248;47.374;8.486;2024-03-29T05:52:44;0.90;;;0.90;;
10403;SDS011;5248;47.374;8.486;2024-03-29T05:55:12;0.90;;;0.80;;
10403;SDS011;5248;47.374;8.486;2024-03-29T05:57:39;1.17;;;0.70;;
10403;SDS011;5248;47.374;8.486;2024-03-29T06:00:07;2.97;;;2.77;;
10403;SDS011;5248;47.374;8.486;2024-03-29T06:02:35;1.30;;;1.20;;
10403;SDS011;5248;47.374;8.486;2024-03-29T06:05:03;0.83;;;0.83;;
10403;SDS011;5248;47.374;8.486;2024-03-29T06:07:31;1.10;;;1.00;;
10403;SDS011;5248;47.374;8.486;2024-03-29T06:09:58;2.03;;;1.37;;
10403;SDS011;5248;47.374;8.486;2024-03-29T06:12:25;2.37;;;1.40;;
10403;SDS011;5248;47.374;8.486;2024-03-29T06:14:53;1.40;;;1.30;;
10403;SDS011;5248;47.374;8.486;2024-03-29T06:17:37;1.90;;;1.30;;
10403;SDS011;5248;47.374;8.486;2024-03-29T06:20:05;1.73;;;1.63;;
10403;SDS011;5248;47.374;8.486;2024-03-29T06:22:33;2.37;;;1.40;;
10403;SDS011;5248;47.374;8.486;2024-03-29T06:24:59;1.10;;;1.10;;
10403;SDS011;5248;47.374;8.486;2024-03-29T06:27:29;1.50;;;1.40;;
10403;SDS011;5248;47.374;8.486;2024-03-29T06:29:56;1.57;;;1.27;;
10403;SDS011;5248;47.374;8.486;2024-03-29T06:32:23;1.20;;;1.10;;
10403;SDS011;5248;47.374;8.486;2024-03-29T06:34:50;1.57;;;1.47;;
10403;SDS011;5248;47.374;8.486;2024-03-29T06:37:17;3.47;;;1.63;;
10403;SDS011;5248;47.374;8.486;2024-03-29T06:39:46;1.20;;;1.20;;
10403;SDS011;5248;47.374;8.486;2024-03-29T06:42:13;1.73;;;1.50;;
10403;SDS011;5248;47.374;8.486;2024-03-29T06:44:40;2.00;;;1.77;;
10403;SDS011;5248;47.374;8.486;2024-03-29T06:47:06;3.50;;;1.80;;
10403;SDS011;5248;47.374;8.486;2024-03-29T06:49:33;2.10;;;1.90;;
10403;SDS011;5248;47.374;8.486;2024-03-29T06:52:00;2.23;;;2.03;;
10403;SDS011;5248;47.374;8.486;2024-03-29T06:54:28;2.00;;;1.70;;
10403;SDS011;5248;47.374;8.486;2024-03-29T06:56:55;1.87;;;1.77;;
10403;SDS011;5248;47.374;8.486;2024-03-29T06:59:22;1.60;;;1.50;;
10403;SDS011;5248;47.374;8.486;2024-03-29T07:01:48;2.43;;;1.50;;
10403;SDS011;5248;47.374;8.486;2024-03-29T07:04:17;2.13;;;1.57;;
10403;SDS011;5248;47.374;8.486;2024-03-29T07:06:44;2.30;;;1.80;;
10403;SDS011;5248;47.374;8.486;2024-03-29T07:09:12;1.40;;;1.30;;
10403;SDS011;5248;47.374;8.486;2024-03-29T07:11:41;1.93;;;1.67;;
10403;SDS011;5248;47.374;8.486;2024-03-29T07:14:07;1.57;;;1.47;;
10403;SDS011;5248;47.374;8.486;2024-03-29T07:16:34;2.13;;;1.33;;
10403;SDS011;5248;47.374;8.486;2024-03-29T07:19:00;1.67;;;1.40;;
10403;SDS011;5248;47.374;8.486;2024-03-29T07:21:28;2.53;;;1.20;;
10403;SDS011;5248;47.374;8.486;2024-03-29T07:23:54;1.90;;;1.73;;
10403;SDS011;5248;47.374;8.486;2024-03-29T07:26:21;1.67;;;1.37;;
10403;SDS011;5248;47.374;8.486;2024-03-29T07:28:49;1.73;;;1.60;;
10403;SDS011;5248;47.374;8.486;2024-03-29T07:31:15;1.33;;;1.30;;
10403;SDS011;5248;47.374;8.486;2024-03-29T07:33:42;1.50;;;1.40;;
10403;SDS011;5248;47.374;8.486;2024-03-29T07:36:09;1.40;;;1.10;;
10403;SDS011;5248;47.374;8.486;2024-03-29T07:38:36;1.17;;;1.10;;
10403;SDS011;5248;47.374;8.486;2024-03-29T07:41:03;1.47;;;1.40;;
10403;SDS011;5248;47.374;8.486;2024-03-29T07:43:37;1.30;;;1.20;;
10403;SDS011;5248;47.374;8.486;2024-03-29T07:46:05;1.20;;;1.10;;
10403;SDS011;5248;47.374;8.486;2024-03-29T07:48:33;1.27;;;1.20;;
10403;SDS011;5248;47.374;8.486;2024-03-29T07:51:00;1.63;;;1.23;;
10403;SDS011;5248;47.374;8.486;2024-03-29T07:53:27;1.67;;;1.20;;
10403;SDS011;5248;47.374;8.486;2024-03-29T07:55:53;1.33;;;1.23;;
10403;SDS011;5248;47.374;8.486;2024-03-29T07:58:20;2.10;;;1.37;;
10403;SDS011;5248;47.374;8.486;2024-03-29T08:00:47;1.27;;;1.17;;
10403;SDS011;5248;47.374;8.486;2024-03-29T08:03:15;1.40;;;1.30;;
10403;SDS011;5248;47.374;8.486;2024-03-29T08:05:41;1.77;;;1.30;;
10403;SDS011;5248;47.374;8.486;2024-03-29T08:08:08;1.10;;;1.00;;
10403;SDS011;5248;47.374;8.486;2024-03-29T08:10:33;0.90;;;0.90;;
10403;SDS011;5248;47.374;8.486;2024-03-29T08:13:00;1.37;;;1.27;;
10403;SDS011;5248;47.374;8.486;2024-03-29T08:15:27;1.67;;;1.57;;
10403;SDS011;5248;47.374;8.486;2024-03-29T08:17:53;2.33;;;1.77;;
10403;SDS011;5248;47.374;8.486;2024-03-29T08:20:21;1.77;;;1.67;;
10403;SDS011;5248;47.374;8.486;2024-03-29T08:22:54;1.77;;;1.60;;
10403;SDS011;5248;47.374;8.486;2024-03-29T08:25:23;2.93;;;1.90;;
10403;SDS011;5248;47.374;8.486;2024-03-29T08:27:52;2.13;;;1.90;;
10403;SDS011;5248;47.374;8.486;2024-03-29T08:30:23;2.40;;;2.20;;
10403;SDS011;5248;47.374;8.486;2024-03-29T08:32:50;2.30;;;1.47;;
10403;SDS011;5248;47.374;8.486;2024-03-29T08:35:17;1.63;;;1.53;;
10403;SDS011;5248;47.374;8.486;2024-03-29T08:37:46;1.63;;;1.53;;
10403;SDS011;5248;47.374;8.486;2024-03-29T08:40:13;1.33;;;1.27;;
10403;SDS011;5248;47.374;8.486;2024-03-29T08:42:39;1.53;;;1.43;;
10403;SDS011;5248;47.374;8.486;2024-03-29T08:45:06;1.33;;;1.23;;
10403;SDS011;5248;47.374;8.486;2024-03-29T08:47:35;1.90;;;1.20;;
10403;SDS011;5248;47.374;8.486;2024-03-29T08:50:01;1.63;;;1.53;;
10403;SDS011;5248;47.374;8.486;2024-03-29T08:52:29;1.33;;;1.17;;
10403;SDS011;5248;47.374;8.486;2024-03-29T08:54:57;2.10;;;1.40;;
10403;SDS011;5248;47.374;8.486;2024-03-29T08:57:23;2.10;;;1.23;;
10403;SDS011;5248;47.374;8.486;2024-03-29T08:59:50;1.77;;;1.50;;
10403;SDS011;5248;47.374;8.486;2024-03-29T09:02:17;1.38;;;1.20;;
10403;SDS011;5248;47.374;8.486;2024-03-29T09:04:44;1.65;;;1.52;;
10403;SDS011;5248;47.374;8.486;2024-03-29T09:07:10;1.50;;;1.40;;
10403;SDS011;5248;47.374;8.486;2024-03-29T09:09:37;1.60;;;1.50;;
10403;SDS011;5248;47.374;8.486;2024-03-29T09:12:07;2.40;;;1.40;;
10403;SDS011;5248;47.374;8.486;2024-03-29T09:14:34;2.10;;;1.30;;
10403;SDS011;5248;47.374;8.486;2024-03-29T09:17:01;1.70;;;1.60;;
10403;SDS011;5248;47.374;8.486;2024-03-29T09:19:29;1.60;;;1.50;;
10403;SDS011;5248;47.374;8.486;2024-03-29T09:21:56;1.73;;;1.35;;
10403;SDS011;5248;47.374;8.486;2024-03-29T09:24:23;2.03;;;1.27;;
10403;SDS011;5248;47.374;8.486;2024-03-29T09:26:51;2.13;;;1.92;;
10403;SDS011;5248;47.374;8.486;2024-03-29T09:29:19;2.60;;;2.33;;
10403;SDS011;5248;47.374;8.486;2024-03-29T09:31:46;3.10;;;2.80;;
10403;SDS011;5248;47.374;8.486;2024-03-29T09:34:14;2.90;;;2.60;;
10403;SDS011;5248;47.374;8.486;2024-03-29T09:36:41;1.90;;;1.80;;
10403;SDS011;5248;47.374;8.486;2024-03-29T09:39:07;1.85;;;1.73;;
10403;SDS011;5248;47.374;8.486;2024-03-29T09:41:34;1.80;;;1.70;;
10403;SDS011;5248;47.374;8.486;2024-03-29T09:44:03;2.20;;;2.00;;
10403;SDS011;5248;47.374;8.486;2024-03-29T09:46:32;2.05;;;1.95;;
10403;SDS011;5248;47.374;8.486;2024-03-29T09:48:59;2.83;;;2.00;;
10403;SDS011;5248;47.374;8.486;2024-03-29T09:51:28;1.75;;;1.55;;
10403;SDS011;5248;47.374;8.486;2024-03-29T09:53:55;2.10;;;1.50;;
10403;SDS011;5248;47.374;8.486;2024-03-29T09:56:23;1.42;;;1.33;;
10403;SDS011;5248;47.374;8.486;2024-03-29T09:58:51;1.45;;;1.35;;
10403;SDS011;5248;47.374;8.486;2024-03-29T10:01:18;1.40;;;1.30;;
10403;SDS011;5248;47.374;8.486;2024-03-29T10:03:48;1.67;;;1.10;;
10403;SDS011;5248;47.374;8.486;2024-03-29T10:06:15;1.67;;;1.58;;
10403;SDS011;5248;47.374;8.486;2024-03-29T10:08:43;1.67;;;1.30;;
10403;SDS011;5248;47.374;8.486;2024-03-29T10:11:09;1.75;;;1.13;;
10403;SDS011;5248;47.374;8.486;2024-03-29T10:13:36;1.83;;;1.25;;
10403;SDS011;5248;47.374;8.486;2024-03-29T10:16:04;1.15;;;1.13;;
10403;SDS011;5248;47.374;8.486;2024-03-29T10:18:30;1.30;;;1.10;;
10403;SDS011;5248;47.374;8.486;2024-03-29T10:21:02;2.38;;;1.50;;
10403;SDS011;5248;47.374;8.486;2024-03-29T10:23:29;2.00;;;1.00;;
10403;SDS011;5248;47.374;8.486;2024-03-29T10:25:57;1.92;;;1.33;;
10403;SDS011;5248;47.374;8.486;2024-03-29T10:28:24;2.45;;;1.40;;
10403;SDS011;5248;47.374;8.486;2024-03-29T10:30:57;1.40;;;1.20;;
10403;SDS011;5248;47.374;8.486;2024-03-29T10:33:27;1.58;;;1.05;;
10403;SDS011;5248;47.374;8.486;2024-03-29T10:35:54;1.20;;;1.10;;
10403;SDS011;5248;47.374;8.486;2024-03-29T10:38:22;1.52;;;1.42;;
10403;SDS011;5248;47.374;8.486;2024-03-29T10:40:48;1.00;;;1.00;;
10403;SDS011;5248;47.374;8.486;2024-03-29T10:43:15;1.55;;;1.00;;
10403;SDS011;5248;47.374;8.486;2024-03-29T10:45:43;1.35;;;1.25;;
10403;SDS011;5248;47.374;8.486;2024-03-29T10:48:10;1.70;;;1.60;;
10403;SDS011;5248;47.374;8.486;2024-03-29T10:50:38;1.80;;;1.70;;
10403;SDS011;5248;47.374;8.486;2024-03-29T10:53:07;1.25;;;1.20;;
10403;SDS011;5248;47.374;8.486;2024-03-29T10:55:37;1.30;;;1.20;;
10403;SDS011;5248;47.374;8.486;2024-03-29T10:58:04;1.23;;;1.20;;
10403;SDS011;5248;47.374;8.486;2024-03-29T11:00:32;2.58;;;1.55;;
10403;SDS011;5248;47.374;8.486;2024-03-29T11:03:05;1.50;;;1.40;;
10403;SDS011;5248;47.374;8.486;2024-03-29T11:05:35;1.65;;;1.40;;
10403;SDS011;5248;47.374;8.486;2024-03-29T11:08:04;1.27;;;1.17;;
10403;SDS011;5248;47.374;8.486;2024-03-29T11:10:34;1.17;;;1.10;;
10403;SDS011;5248;47.374;8.486;2024-03-29T11:13:06;1.45;;;1.35;;
10403;SDS011;5248;47.374;8.486;2024-03-29T11:15:40;1.38;;;1.10;;
10403;SDS011;5248;47.374;8.486;2024-03-29T11:18:07;1.73;;;1.05;;
10403;SDS011;5248;47.374;8.486;2024-03-29T11:20:34;1.55;;;1.02;;
10403;SDS011;5248;47.374;8.486;2024-03-29T11:23:04;1.10;;;1.10;;
10403;SDS011;5248;47.374;8.486;2024-03-29T11:25:38;3.85;;;1.30;;
10403;SDS011;5248;47.374;8.486;2024-03-29T11:28:07;1.10;;;1.00;;
10403;SDS011;5248;47.374;8.486;2024-03-29T11:30:39;1.25;;;1.13;;
10403;SDS011;5248;47.374;8.486;2024-03-29T11:33:06;1.27;;;1.17;;
10403;SDS011;5248;47.374;8.486;2024-03-29T11:35:36;1.02;;;1.02;;
10403;SDS011;5248;47.374;8.486;2024-03-29T11:38:05;1.38;;;1.38;;
10403;SDS011;5248;47.374;8.486;2024-03-29T11:40:32;0.85;;;0.85;;
10403;SDS011;5248;47.374;8.486;2024-03-29T11:42:59;1.15;;;1.02;;
10403;SDS011;5248;47.374;8.486;2024-03-29T11:45:26;2.55;;;1.13;;
10403;SDS011;5248;47.374;8.486;2024-03-29T11:47:55;2.85;;;1.23;;
10403;SDS011;5248;47.374;8.486;2024-03-29T11:50:23;1.40;;;1.30;;
10403;SDS011;5248;47.374;8.486;2024-03-29T11:52:51;1.38;;;1.27;;
10403;SDS011;5248;47.374;8.486;2024-03-29T11:55:17;1.33;;;1.23;;
10403;SDS011;5248;47.374;8.486;2024-03-29T11:57:44;1.75;;;0.95;;
10403;SDS011;5248;47.374;8.486;2024-03-29T12:00:11;1.40;;;1.30;;
10403;SDS011;5248;47.374;8.486;2024-03-29T12:02:40;1.40;;;1.30;;
10403;SDS011;5248;47.374;8.486;2024-03-29T12:05:07;2.15;;;1.33;;
10403;SDS011;5248;47.374;8.486;2024-03-29T12:07:36;1.20;;;1.10;;
10403;SDS011;5248;47.374;8.486;2024-03-29T12:10:03;1.77;;;1.63;;
10403;SDS011;5248;47.374;8.486;2024-03-29T12:12:30;1.35;;;1.25;;
10403;SDS011;5248;47.374;8.486;2024-03-29T12:15:02;0.98;;;0.98;;
10403;SDS011;5248;47.374;8.486;2024-03-29T12:17:30;1.15;;;1.08;;
10403;SDS011;5248;47.374;8.486;2024-03-29T12:19:58;1.30;;;1.20;;
10403;SDS011;5248;47.374;8.486;2024-03-29T12:22:29;1.00;;;0.90;;
10403;SDS011;5248;47.374;8.486;2024-03-29T12:24:56;1.35;;;1.10;;
10403;SDS011;5248;47.374;8.486;2024-03-29T12:27:23;2.90;;;1.45;;
10403;SDS011;5248;47.374;8.486;2024-03-29T12:29:50;2.35;;;1.15;;
10403;SDS011;5248;47.374;8.486;2024-03-29T12:32:18;1.23;;;1.08;;
10403;SDS011;5248;47.374;8.486;2024-03-29T12:34:45;1.13;;;1.02;;
10403;SDS011;5248;47.374;8.486;2024-03-29T12:37:13;1.60;;;1.50;;
10403;SDS011;5248;47.374;8.486;2024-03-29T12:39:41;1.10;;;1.00;;
10403;SDS011;5248;47.374;8.486;2024-03-29T12:42:07;1.50;;;1.00;;
10403;SDS011;5248;47.374;8.486;2024-03-29T12:44:34;1.00;;;0.90;;
10403;SDS011;5248;47.374;8.486;2024-03-29T12:47:01;0.95;;;0.95;;
10403;SDS011;5248;47.374;8.486;2024-03-29T12:49:29;1.17;;;1.10;;
10403;SDS011;5248;47.374;8.486;2024-03-29T12:51:56;1.67;;;0.85;;
10403;SDS011;5248;47.374;8.486;2024-03-29T12:54:24;1.25;;;1.10;;
10403;SDS011;5248;47.374;8.486;2024-03-29T12:56:52;1.10;;;0.95;;
10403;SDS011;5248;47.374;8.486;2024-03-29T12:59:21;1.13;;;1.00;;
10403;SDS011;5248;47.374;8.486;2024-03-29T13:01:48;0.80;;;0.80;;
10403;SDS011;5248;47.374;8.486;2024-03-29T13:04:14;0.90;;;0.90;;
10403;SDS011;5248;47.374;8.486;2024-03-29T13:06:41;1.13;;;1.00;;
10403;SDS011;5248;47.374;8.486;2024-03-29T13:09:07;1.35;;;1.30;;
10403;SDS011;5248;47.374;8.486;2024-03-29T13:11:36;1.42;;;0.90;;
10403;SDS011;5248;47.374;8.486;2024-03-29T13:14:02;0.82;;;0.82;;
10403;SDS011;5248;47.374;8.486;2024-03-29T13:16:30;0.90;;;0.90;;
10403;SDS011;5248;47.374;8.486;2024-03-29T13:18:56;0.75;;;0.75;;
10403;SDS011;5248;47.374;8.486;2024-03-29T13:21:23;1.20;;;0.93;;
10403;SDS011;5248;47.374;8.486;2024-03-29T13:23:49;0.90;;;0.90;;
10403;SDS011;5248;47.374;8.486;2024-03-29T13:26:16;1.48;;;0.98;;
10403;SDS011;5248;47.374;8.486;2024-03-29T13:28:44;0.70;;;0.70;;
10403;SDS011;5248;47.374;8.486;2024-03-29T13:31:11;0.73;;;0.73;;
10403;SDS011;5248;47.374;8.486;2024-03-29T13:33:38;1.10;;;1.00;;
10403;SDS011;5248;47.374;8.486;2024-03-29T13:36:05;1.10;;;1.00;;
10403;SDS011;5248;47.374;8.486;2024-03-29T13:38:32;1.00;;;0.75;;
10403;SDS011;5248;47.374;8.486;2024-03-29T13:40:58;0.80;;;0.80;;
10403;SDS011;5248;47.374;8.486;2024-03-29T13:43:25;0.95;;;0.90;;
10403;SDS011;5248;47.374;8.486;2024-03-29T13:45:54;0.75;;;0.75;;
10403;SDS011;5248;47.374;8.486;2024-03-29T13:48:20;1.70;;;0.90;;
10403;SDS011;5248;47.374;8.486;2024-03-29T13:50:47;1.13;;;1.02;;
10403;SDS011;5248;47.374;8.486;2024-03-29T13:53:15;1.48;;;0.80;;
10403;SDS011;5248;47.374;8.486;2024-03-29T13:55:42;0.70;;;0.70;;
10403;SDS011;5248;47.374;8.486;2024-03-29T13:58:08;1.08;;;0.90;;
10403;SDS011;5248;47.374;8.486;2024-03-29T14:00:35;2.50;;;1.00;;
10403;SDS011;5248;47.374;8.486;2024-03-29T14:03:03;1.35;;;1.25;;
10403;SDS011;5248;47.374;8.486;2024-03-29T14:05:31;1.30;;;1.20;;
10403;SDS011;5248;47.374;8.486;2024-03-29T14:07:58;0.77;;;0.70;;
10403;SDS011;5248;47.374;8.486;2024-03-29T14:10:26;1.67;;;0.90;;
10403;SDS011;5248;47.374;8.486;2024-03-29T14:12:52;0.80;;;0.57;;
10403;SDS011;5248;47.374;8.486;2024-03-29T14:15:19;0.75;;;0.40;;
10403;SDS011;5248;47.374;8.486;2024-03-29T14:17:46;0.90;;;0.70;;
10403;SDS011;5248;47.374;8.486;2024-03-29T14:20:14;0.90;;;0.68;;
10403;SDS011;5248;47.374;8.486;2024-03-29T14:22:40;0.73;;;0.73;;
10403;SDS011;5248;47.374;8.486;2024-03-29T14:25:07;0.60;;;0.60;;
10403;SDS011;5248;47.374;8.486;2024-03-29T14:27:35;0.68;;;0.68;;
10403;SDS011;5248;47.374;8.486;2024-03-29T14:30:11;0.60;;;0.60;;
10403;SDS011;5248;47.374;8.486;2024-03-29T14:32:38;0.65;;;0.65;;
10403;SDS011;5248;47.374;8.486;2024-03-29T14:35:05;1.27;;;0.70;;
10403;SDS011;5248;47.374;8.486;2024-03-29T14:37:37;0.57;;;0.57;;
10403;SDS011;5248;47.374;8.486;2024-03-29T14:40:04;0.30;;;0.30;;
10403;SDS011;5248;47.374;8.486;2024-03-29T14:42:31;0.50;;;0.50;;
10403;SDS011;5248;47.374;8.486;2024-03-29T14:44:58;1.35;;;0.98;;
10403;SDS011;5248;47.374;8.486;2024-03-29T14:47:24;1.30;;;0.65;;
10403;SDS011;5248;47.374;8.486;2024-03-29T14:49:51;3.67;;;1.88;;
10403;SDS011;5248;47.374;8.486;2024-03-29T14:52:17;0.98;;;0.98;;
10403;SDS011;5248;47.374;8.486;2024-03-29T14:54:48;1.35;;;0.50;;
10403;SDS011;5248;47.374;8.486;2024-03-29T14:57:15;0.40;;;0.40;;
10403;SDS011;5248;47.374;8.486;2024-03-29T14:59:41;0.50;;;0.50;;